createdAt,value
2018-07-17T00:00:08.927Z,3.37
2018-07-17T00:02:43.255Z,4.23
2018-07-17T00:05:17.810Z,2.77
2018-07-17T00:07:52.460Z,3.57
2018-07-17T00:10:26.859Z,3.73
2018-07-17T00:13:01.419Z,2.73
2018-07-17T00:15:35.960Z,3.00
2018-07-17T00:18:10.384Z,2.27
2018-07-17T00:20:45.092Z,2.53
2018-07-17T00:23:19.725Z,3.10
2018-07-17T00:25:54.247Z,4.07
2018-07-17T00:28:28.881Z,4.63
2018-07-17T00:31:03.384Z,4.03
2018-07-17T00:33:37.833Z,2.60
2018-07-17T00:36:12.179Z,2.97
2018-07-17T00:38:46.736Z,3.57
2018-07-17T00:41:21.378Z,2.50
2018-07-17T00:43:55.860Z,2.70
2018-07-17T00:46:30.480Z,3.63
2018-07-17T00:49:04.891Z,3.07
2018-07-17T00:51:39.393Z,3.10
2018-07-17T00:54:13.937Z,3.37
2018-07-17T00:56:48.570Z,2.97
2018-07-17T00:59:22.953Z,4.40
2018-07-17T01:02:02.743Z,4.30
2018-07-17T01:04:42.548Z,3.90
2018-07-17T01:07:22.559Z,2.73
2018-07-17T01:10:02.486Z,4.03
2018-07-17T01:12:36.221Z,3.50
2018-07-17T01:15:29.722Z,2.77
2018-07-17T01:18:04.334Z,5.63
2018-07-17T01:20:38.866Z,4.73
2018-07-17T01:23:13.529Z,2.40
2018-07-17T01:25:48.131Z,2.90
2018-07-17T01:28:22.715Z,2.97
2018-07-17T01:30:57.370Z,2.67
2018-07-17T01:33:31.877Z,4.27
2018-07-17T01:36:06.310Z,3.27
2018-07-17T01:38:40.847Z,4.50
2018-07-17T01:41:15.313Z,2.50
2018-07-17T01:43:49.875Z,4.00
2018-07-17T01:46:24.408Z,4.70
2018-07-17T01:48:58.905Z,4.30
2018-07-17T01:51:33.425Z,4.47
2018-07-17T01:54:08.226Z,3.37
2018-07-17T01:56:42.784Z,4.30
2018-07-17T01:59:17.247Z,4.60
2018-07-17T02:01:51.812Z,4.87
2018-07-17T02:04:26.230Z,2.63
2018-07-17T02:07:01.024Z,5.13
2018-07-17T02:09:35.565Z,3.50
2018-07-17T02:12:10.198Z,3.33
2018-07-17T02:14:44.760Z,4.40
2018-07-17T02:17:19.324Z,3.43
2018-07-17T02:19:53.931Z,7.97
2018-07-17T02:22:28.516Z,4.03
2018-07-17T02:25:06.536Z,2.83
2018-07-17T02:27:41.028Z,3.27
2018-07-17T02:30:15.539Z,4.00
2018-07-17T02:32:50.048Z,5.30
2018-07-17T02:35:24.564Z,2.60
2018-07-17T02:37:59.182Z,3.97
2018-07-17T02:40:33.750Z,3.67
2018-07-17T02:43:08.409Z,3.97
2018-07-17T02:45:50.435Z,4.83
2018-07-17T02:48:25.199Z,4.83
2018-07-17T02:50:59.880Z,2.80
2018-07-17T02:53:45.085Z,3.57
2018-07-17T02:56:27.998Z,4.67
2018-07-17T02:59:02.474Z,4.00
2018-07-17T03:01:36.927Z,3.83
2018-07-17T03:04:11.433Z,3.30
2018-07-17T03:06:46.543Z,4.77
2018-07-17T03:09:21.353Z,2.90
2018-07-17T03:11:55.836Z,3.03
2018-07-17T03:14:30.204Z,4.73
2018-07-17T03:17:04.621Z,8.10
2018-07-17T03:19:38.946Z,6.23
2018-07-17T03:22:13.576Z,3.70
2018-07-17T03:24:48.153Z,6.20
2018-07-17T03:27:22.743Z,4.30
2018-07-17T03:29:57.434Z,5.20
2018-07-17T03:32:32.137Z,4.60
2018-07-17T03:35:06.630Z,3.23
2018-07-17T03:37:41.255Z,3.80
2018-07-17T03:40:15.857Z,3.20
2018-07-17T03:42:50.394Z,5.63
2018-07-17T03:45:24.989Z,5.90
2018-07-17T03:47:59.532Z,4.53
2018-07-17T03:50:34.084Z,7.47
2018-07-17T03:53:08.612Z,3.53
2018-07-17T03:55:42.968Z,5.13
2018-07-17T03:58:17.579Z,3.17
2018-07-17T04:00:52.087Z,4.97
2018-07-17T04:03:26.598Z,3.93
2018-07-17T04:06:01.254Z,4.90
2018-07-17T04:08:35.732Z,8.13
2018-07-17T04:11:10.136Z,6.80
2018-07-17T04:13:44.737Z,6.63
2018-07-17T04:16:19.258Z,5.57
2018-07-17T04:18:53.654Z,4.33
2018-07-17T04:21:28.022Z,4.17
2018-07-17T04:24:02.401Z,4.10
2018-07-17T04:26:36.739Z,3.33
2018-07-17T04:29:11.353Z,4.73
2018-07-17T04:31:46.007Z,4.20
2018-07-17T04:34:20.434Z,4.10
2018-07-17T04:36:54.956Z,5.80
2018-07-17T04:39:29.429Z,4.77
2018-07-17T04:42:04.128Z,3.50
2018-07-17T04:44:38.820Z,5.53
2018-07-17T04:47:13.342Z,4.03
2018-07-17T04:49:47.756Z,3.30
2018-07-17T04:52:22.351Z,3.93
2018-07-17T04:54:56.822Z,4.63
2018-07-17T04:57:31.328Z,4.73
2018-07-17T05:00:05.821Z,4.33
2018-07-17T05:02:40.514Z,5.10
2018-07-17T05:05:14.997Z,4.10
2018-07-17T05:07:49.726Z,5.20
2018-07-17T05:10:24.312Z,6.20
2018-07-17T05:12:58.822Z,6.40
2018-07-17T05:15:33.599Z,6.90
2018-07-17T05:18:08.210Z,8.87
2018-07-17T05:20:42.971Z,8.73
2018-07-17T05:23:17.731Z,6.43
2018-07-17T05:25:52.556Z,11.20
2018-07-17T05:28:27.079Z,8.40
2018-07-17T05:31:01.756Z,9.03
2018-07-17T05:33:36.322Z,10.00
2018-07-17T05:36:10.971Z,15.10
2018-07-17T05:38:45.565Z,9.97
2018-07-17T05:41:20.096Z,11.23
2018-07-17T05:43:54.557Z,9.27
2018-07-17T05:46:29.130Z,8.77
2018-07-17T05:49:03.536Z,8.90
2018-07-17T05:51:38.229Z,8.33
2018-07-17T05:54:12.863Z,8.03
2018-07-17T05:56:47.603Z,10.37
2018-07-17T05:59:22.233Z,9.70
2018-07-17T06:01:56.716Z,9.23
2018-07-17T06:04:31.360Z,12.70
2018-07-17T06:07:06.009Z,10.30
2018-07-17T06:09:40.552Z,11.50
2018-07-17T06:12:15.263Z,10.70
2018-07-17T06:14:49.778Z,10.13
2018-07-17T06:17:24.285Z,11.67
2018-07-17T06:19:58.867Z,9.30
2018-07-17T06:22:33.448Z,15.37
2018-07-17T06:28:10.717Z,12.27
2018-07-17T06:30:45.192Z,11.83
2018-07-17T06:33:19.672Z,10.90
2018-07-17T06:35:54.202Z,13.10
2018-07-17T06:38:28.687Z,12.53
2018-07-17T06:41:03.376Z,9.90
2018-07-17T06:43:37.825Z,12.30
2018-07-17T06:46:12.212Z,10.30
2018-07-17T06:48:46.800Z,9.60
2018-07-17T06:51:21.297Z,10.23
2018-07-17T06:53:56.300Z,9.03
2018-07-17T06:56:30.584Z,9.47
2018-07-17T06:59:05.032Z,11.93
2018-07-17T07:01:39.547Z,9.00
2018-07-17T07:04:14.110Z,10.20
2018-07-17T07:06:48.649Z,9.73
2018-07-17T07:09:23.438Z,8.80
2018-07-17T07:11:57.994Z,7.53
2018-07-17T07:14:32.598Z,9.37
2018-07-17T07:17:07.191Z,7.77
2018-07-17T07:19:41.604Z,8.17
2018-07-17T07:22:16.053Z,12.87
2018-07-17T07:24:50.410Z,11.97
2018-07-17T07:27:24.889Z,12.83
2018-07-17T07:29:59.532Z,9.30
2018-07-17T07:32:34.012Z,11.13
2018-07-17T07:35:08.461Z,12.03
2018-07-17T07:37:42.981Z,14.90
2018-07-17T07:40:17.524Z,10.70
2018-07-17T07:42:52.166Z,13.93
2018-07-17T07:45:26.528Z,10.07
2018-07-17T07:48:00.968Z,11.03
2018-07-17T07:50:35.359Z,16.43
2018-07-17T07:53:09.887Z,11.27
2018-07-17T07:55:44.551Z,10.97
2018-07-17T07:58:19.032Z,11.10
2018-07-17T08:00:53.598Z,12.83
2018-07-17T08:03:28.061Z,12.80
2018-07-17T08:06:02.616Z,12.00
2018-07-17T08:08:37.080Z,10.97
2018-07-17T08:11:11.580Z,12.23
2018-07-17T08:13:46.211Z,13.70
2018-07-17T08:16:20.865Z,14.67
2018-07-17T08:18:55.355Z,13.87
2018-07-17T08:21:29.785Z,13.30
2018-07-17T08:24:04.200Z,13.30
2018-07-17T08:26:38.680Z,12.73
2018-07-17T08:29:13.116Z,9.47
2018-07-17T08:31:47.585Z,9.53
2018-07-17T08:34:22.205Z,10.13
2018-07-17T08:36:56.673Z,7.20
2018-07-17T08:39:31.004Z,9.80
2018-07-17T08:42:09.308Z,7.53
2018-07-17T08:44:49.243Z,8.17
2018-07-17T08:47:23.808Z,9.03
2018-07-17T08:49:58.420Z,6.73
2018-07-17T08:52:32.812Z,9.17
2018-07-17T08:55:07.307Z,10.97
2018-07-17T08:57:41.941Z,8.60
2018-07-17T09:00:16.397Z,11.07
2018-07-17T09:02:50.961Z,7.47
2018-07-17T09:05:25.477Z,7.90
2018-07-17T09:07:59.964Z,7.60
2018-07-17T09:10:34.341Z,7.33
2018-07-17T09:13:08.834Z,8.20
2018-07-17T09:15:43.387Z,6.53
2018-07-17T09:18:18.130Z,8.23
2018-07-17T09:20:52.527Z,6.63
2018-07-17T09:23:27.016Z,7.07
2018-07-17T09:26:01.738Z,8.20
2018-07-17T09:28:36.258Z,8.23
2018-07-17T09:31:10.697Z,7.33
2018-07-17T09:33:45.330Z,8.63
2018-07-17T09:36:19.760Z,7.97
2018-07-17T09:38:54.358Z,8.60
2018-07-17T09:41:28.724Z,10.33
2018-07-17T09:44:03.136Z,7.00
2018-07-17T09:46:37.767Z,8.03
2018-07-17T09:49:22.129Z,10.33
2018-07-17T09:52:02.668Z,9.97
2018-07-17T09:54:45.893Z,9.63
2018-07-17T09:57:31.306Z,8.27
2018-07-17T10:00:05.654Z,7.83
2018-07-17T10:02:40.037Z,11.07
2018-07-17T10:05:14.503Z,8.80
2018-07-17T10:07:49.021Z,9.03
2018-07-17T10:10:24.596Z,9.73
2018-07-17T10:12:59.112Z,9.40
2018-07-17T10:15:33.592Z,10.83
2018-07-17T10:18:08.113Z,8.77
2018-07-17T10:20:42.624Z,10.33
2018-07-17T10:23:17.330Z,10.53
2018-07-17T10:25:51.756Z,9.90
2018-07-17T10:28:26.208Z,9.10
2018-07-17T10:31:01.051Z,7.93
2018-07-17T10:33:35.620Z,7.77
2018-07-17T10:36:10.109Z,6.17
2018-07-17T10:38:44.716Z,8.33
2018-07-17T10:41:19.299Z,7.78
2018-07-17T10:43:53.933Z,9.78
2018-07-17T10:46:28.408Z,6.72
2018-07-17T10:49:02.699Z,5.72
2018-07-17T10:51:37.045Z,4.90
2018-07-17T10:54:11.579Z,6.97
2018-07-17T10:56:46.001Z,4.37
2018-07-17T10:59:20.447Z,5.08
2018-07-17T11:01:55.060Z,3.93
2018-07-17T11:04:29.645Z,3.47
2018-07-17T11:07:10.271Z,5.13
2018-07-17T11:10:00.081Z,3.67
2018-07-17T11:12:34.492Z,2.73
2018-07-17T11:15:09.027Z,4.23
2018-07-17T11:17:43.537Z,5.37
2018-07-17T11:20:18.024Z,2.93
2018-07-17T11:22:52.596Z,3.93
2018-07-17T11:25:27.077Z,2.57
2018-07-17T11:28:01.557Z,2.47
2018-07-17T11:30:36.075Z,2.23
2018-07-17T11:33:31.109Z,2.33
2018-07-17T11:36:05.757Z,3.37
2018-07-17T11:38:40.370Z,3.30
2018-07-17T11:41:14.832Z,2.77
2018-07-17T11:43:49.360Z,3.17
2018-07-17T11:46:24.807Z,1.90
2018-07-17T11:48:59.519Z,2.57
2018-07-17T11:51:33.877Z,3.87
2018-07-17T11:54:08.340Z,2.80
2018-07-17T11:56:42.864Z,4.00
2018-07-17T11:59:17.338Z,2.37
2018-07-17T12:01:51.849Z,2.57
2018-07-17T12:04:26.457Z,3.77
2018-07-17T12:07:00.819Z,2.00
2018-07-17T12:09:35.316Z,2.00
2018-07-17T12:12:09.860Z,2.40
2018-07-17T12:14:44.351Z,2.37
2018-07-17T12:17:18.946Z,4.17
2018-07-17T12:19:53.569Z,1.70
2018-07-17T12:22:28.137Z,4.67
2018-07-17T12:25:02.650Z,1.90
2018-07-17T12:27:45.338Z,3.13
2018-07-17T12:30:19.756Z,2.03
2018-07-17T12:32:54.101Z,2.87
2018-07-17T12:35:28.598Z,2.30
2018-07-17T12:38:03.247Z,3.10
2018-07-17T12:40:45.079Z,2.87
2018-07-17T12:43:22.935Z,2.23
2018-07-17T12:45:57.485Z,2.93
2018-07-17T12:48:32.040Z,3.27
2018-07-17T12:51:06.513Z,2.30
2018-07-17T12:53:40.944Z,3.37
2018-07-17T12:56:15.518Z,3.03
2018-07-17T12:58:50.510Z,2.43
2018-07-17T13:01:24.986Z,3.50
2018-07-17T13:03:59.400Z,3.10
2018-07-17T13:06:33.832Z,2.50
2018-07-17T13:09:09.277Z,3.97
2018-07-17T13:11:43.704Z,3.27
2018-07-17T13:14:18.112Z,2.37
2018-07-17T13:16:52.676Z,3.60
2018-07-17T13:19:27.180Z,2.57
2018-07-17T13:22:01.661Z,4.63
2018-07-17T13:24:36.281Z,2.90
2018-07-17T13:27:10.656Z,2.37
2018-07-17T13:29:45.345Z,2.10
2018-07-17T13:32:19.982Z,2.20
2018-07-17T13:35:07.460Z,3.40
2018-07-17T13:37:41.947Z,2.93
2018-07-17T13:40:16.522Z,2.17
2018-07-17T13:42:51.004Z,3.50
2018-07-17T13:45:25.572Z,2.43
2018-07-17T13:48:00.156Z,4.90
2018-07-17T13:50:35.464Z,3.13
2018-07-17T13:53:10.018Z,2.87
2018-07-17T13:55:44.543Z,2.47
2018-07-17T13:58:19.018Z,2.20
2018-07-17T14:00:53.488Z,5.30
2018-07-17T14:03:28.000Z,6.17
2018-07-17T14:06:02.610Z,4.20
2018-07-17T14:08:37.317Z,2.30
2018-07-17T14:11:12.020Z,3.70
2018-07-17T14:13:46.576Z,2.70
2018-07-17T14:16:21.119Z,4.50
2018-07-17T14:18:55.471Z,3.67
2018-07-17T14:21:31.610Z,2.53
2018-07-17T14:24:06.120Z,6.27
2018-07-17T14:26:40.680Z,2.00
2018-07-17T14:29:15.255Z,3.73
2018-07-17T14:31:49.866Z,2.30
2018-07-17T14:34:24.438Z,3.60
2018-07-17T14:36:58.820Z,2.63
2018-07-17T14:39:33.477Z,2.50
2018-07-17T14:42:08.029Z,2.50
2018-07-17T14:44:42.414Z,4.43
2018-07-17T14:47:17.097Z,6.47
2018-07-17T14:49:51.679Z,4.37
2018-07-17T14:52:26.272Z,11.27
2018-07-17T14:55:01.135Z,6.80
2018-07-17T14:57:35.672Z,38.67
2018-07-17T15:00:10.852Z,7.97
2018-07-17T15:02:45.256Z,5.67
2018-07-17T15:05:19.731Z,4.80
2018-07-17T15:07:54.196Z,5.40
2018-07-17T15:10:28.673Z,3.33
2018-07-17T15:13:03.176Z,4.67
2018-07-17T15:15:37.775Z,2.50
2018-07-17T15:18:12.070Z,3.77
2018-07-17T15:20:46.447Z,2.43
2018-07-17T15:23:20.964Z,3.07
2018-07-17T15:25:55.513Z,3.17
2018-07-17T15:28:29.996Z,2.00
2018-07-17T15:31:04.348Z,2.93
2018-07-17T15:33:38.765Z,3.80
2018-07-17T15:36:13.620Z,2.57
2018-07-17T15:38:48.206Z,2.53
2018-07-17T15:41:22.824Z,3.10
2018-07-17T15:43:57.277Z,3.50
2018-07-17T15:46:31.757Z,3.93
2018-07-17T15:49:06.218Z,3.40
2018-07-17T15:51:40.687Z,2.20
2018-07-17T15:54:15.164Z,2.43
2018-07-17T15:56:49.545Z,4.73
2018-07-17T15:59:23.868Z,2.37
2018-07-17T16:01:58.404Z,6.87
2018-07-17T16:04:33.170Z,3.50
2018-07-17T16:07:07.593Z,3.97
2018-07-17T16:09:42.180Z,3.87
2018-07-17T16:12:16.697Z,6.23
2018-07-17T16:14:51.254Z,3.50
2018-07-17T16:17:25.887Z,6.47
2018-07-17T16:20:00.331Z,3.60
2018-07-17T16:22:34.845Z,5.87
2018-07-17T16:25:09.476Z,3.73
2018-07-17T16:27:43.969Z,3.20
2018-07-17T16:30:18.632Z,5.83
2018-07-17T16:32:53.357Z,3.73
2018-07-17T16:35:27.956Z,5.40
2018-07-17T16:38:02.310Z,3.60
2018-07-17T16:40:36.830Z,4.53
2018-07-17T16:43:11.229Z,5.63
2018-07-17T16:45:45.840Z,5.77
2018-07-17T16:48:20.303Z,5.33
2018-07-17T16:50:54.748Z,6.17
2018-07-17T16:53:29.231Z,7.10
2018-07-17T16:56:03.776Z,5.37
2018-07-17T16:58:38.507Z,5.30
2018-07-17T17:01:12.949Z,4.97
2018-07-17T17:03:47.297Z,6.03
2018-07-17T17:06:21.941Z,3.90
2018-07-17T17:08:56.499Z,5.63
2018-07-17T17:11:31.065Z,6.67
2018-07-17T17:14:05.614Z,4.03
2018-07-17T17:16:40.544Z,6.67
2018-07-17T17:19:15.125Z,5.70
2018-07-17T17:21:49.769Z,7.97
2018-07-17T17:24:24.402Z,3.83
2018-07-17T17:26:58.805Z,5.10
2018-07-17T17:29:33.643Z,5.03
2018-07-17T17:32:08.214Z,4.17
2018-07-17T17:34:42.678Z,3.60
2018-07-17T17:37:17.167Z,4.70
2018-07-17T17:39:51.558Z,5.40
2018-07-17T17:42:25.834Z,12.03
2018-07-17T17:45:00.324Z,4.87
2018-07-17T17:47:34.723Z,4.13
2018-07-17T17:50:09.005Z,6.30
2018-07-17T17:52:43.259Z,3.70
2018-07-17T17:55:17.651Z,3.63
2018-07-17T17:57:52.144Z,4.83
2018-07-17T18:00:26.773Z,3.30
2018-07-17T18:03:01.426Z,3.90
2018-07-17T18:05:36.063Z,4.10
2018-07-17T18:08:10.528Z,4.70
2018-07-17T18:10:45.504Z,4.57
2018-07-17T18:13:20.088Z,6.53
2018-07-17T18:15:54.540Z,3.87
2018-07-17T18:18:28.988Z,3.87
2018-07-17T18:21:03.511Z,7.13
2018-07-17T18:23:38.115Z,9.93
2018-07-17T18:26:14.022Z,5.77
2018-07-17T18:29:07.137Z,6.27
2018-07-17T18:31:41.863Z,4.90
2018-07-17T18:34:16.409Z,6.77
2018-07-17T18:37:09.676Z,5.60
2018-07-17T18:39:44.255Z,5.27
2018-07-17T18:42:18.870Z,5.13
2018-07-17T18:44:53.500Z,4.77
2018-07-17T18:47:27.836Z,5.67
2018-07-17T18:50:12.584Z,4.87
2018-07-17T18:52:36.838Z,7.10
2018-07-17T18:55:11.211Z,4.37
2018-07-17T18:57:45.769Z,6.63
2018-07-17T19:00:20.111Z,8.60
2018-07-17T19:02:54.461Z,5.67
2018-07-17T19:05:28.824Z,3.97
2018-07-17T19:08:03.284Z,5.30
2018-07-17T19:10:37.696Z,5.13
2018-07-17T19:13:12.266Z,5.33
2018-07-17T19:15:54.193Z,8.17
2018-07-17T19:18:28.640Z,6.20
2018-07-17T19:21:03.108Z,7.03
2018-07-17T19:23:37.596Z,4.73
2018-07-17T19:26:13.302Z,4.23
2018-07-17T19:28:47.661Z,5.57
2018-07-17T19:31:22.363Z,5.37
2018-07-17T19:33:56.823Z,8.43
2018-07-17T19:36:31.406Z,9.60
2018-07-17T19:39:08.844Z,9.50
2018-07-17T19:41:43.226Z,6.53
2018-07-17T19:44:17.740Z,9.07
2018-07-17T19:46:52.057Z,14.63
2018-07-17T19:49:26.467Z,6.70
2018-07-17T19:52:00.950Z,11.00
2018-07-17T19:54:35.408Z,8.57
2018-07-17T19:57:10.128Z,6.90
2018-07-17T19:59:44.876Z,8.87
2018-07-17T20:02:19.318Z,8.37
2018-07-17T20:04:53.892Z,4.93
2018-07-17T20:07:28.395Z,8.47
2018-07-17T20:10:02.862Z,6.53
2018-07-17T20:12:37.392Z,4.43
2018-07-17T20:15:12.065Z,6.20
2018-07-17T20:17:46.529Z,8.40
2018-07-17T20:20:21.141Z,6.33
2018-07-17T20:22:55.626Z,5.33
2018-07-17T20:25:30.261Z,7.47
2018-07-17T20:28:04.815Z,8.77
2018-07-17T20:30:39.313Z,4.70
2018-07-17T20:33:13.941Z,5.13
2018-07-17T20:35:48.506Z,9.97
2018-07-17T20:38:23.101Z,6.73
2018-07-17T20:40:57.537Z,5.63
2018-07-17T20:43:32.141Z,4.87
2018-07-17T20:46:06.733Z,7.03
2018-07-17T20:48:41.232Z,6.50
2018-07-17T20:51:15.876Z,5.80
2018-07-17T20:53:50.483Z,4.77
2018-07-17T20:56:25.007Z,4.33
2018-07-17T20:58:59.485Z,7.03
2018-07-17T21:01:34.231Z,6.17
2018-07-17T21:04:08.736Z,4.63
2018-07-17T21:06:43.305Z,8.00
2018-07-17T21:09:17.924Z,4.00
2018-07-17T21:11:52.497Z,4.03
2018-07-17T21:14:27.086Z,4.17
2018-07-17T21:17:01.577Z,4.87
2018-07-17T21:19:36.204Z,3.50
2018-07-17T21:22:10.973Z,8.03
2018-07-17T21:24:45.484Z,3.60
2018-07-17T21:27:20.046Z,3.40
2018-07-17T21:29:54.705Z,3.77
2018-07-17T21:32:29.169Z,3.73
2018-07-17T21:35:03.809Z,3.13
2018-07-17T21:37:38.736Z,3.07
2018-07-17T21:40:13.319Z,5.77
2018-07-17T21:42:47.916Z,6.07
2018-07-17T21:45:22.464Z,2.30
2018-07-17T21:47:57.034Z,2.73
2018-07-17T21:50:31.385Z,3.20
2018-07-17T21:53:05.940Z,8.70
2018-07-17T21:55:40.541Z,4.70
2018-07-17T21:58:15.174Z,5.93
2018-07-17T22:00:50.042Z,3.97
2018-07-17T22:03:24.647Z,3.10
2018-07-17T22:05:59.426Z,4.53
2018-07-17T22:08:34.113Z,2.90
2018-07-17T22:11:08.646Z,6.13
2018-07-17T22:13:43.173Z,3.20
2018-07-17T22:16:17.689Z,6.57
2018-07-17T22:18:52.399Z,3.37
2018-07-17T22:21:26.989Z,4.43
2018-07-17T22:24:01.437Z,4.97
2018-07-17T22:26:36.040Z,4.10
2018-07-17T22:29:10.670Z,3.00
2018-07-17T22:31:45.259Z,2.97
2018-07-17T22:34:19.601Z,5.20
2018-07-17T22:36:54.136Z,4.10
2018-07-17T22:39:28.827Z,4.03
2018-07-17T22:42:03.381Z,6.13
2018-07-17T22:44:37.868Z,5.73
2018-07-17T22:47:12.432Z,4.77
2018-07-17T22:49:46.845Z,3.57
2018-07-17T22:52:21.306Z,6.03
2018-07-17T22:54:55.996Z,4.77
2018-07-17T22:57:30.657Z,6.17
2018-07-17T23:00:05.821Z,5.47
2018-07-17T23:02:40.268Z,6.63
2018-07-17T23:05:14.888Z,3.53
2018-07-17T23:07:49.448Z,5.33
2018-07-17T23:10:23.995Z,4.63
2018-07-17T23:12:58.567Z,5.43
2018-07-17T23:15:33.872Z,4.40
2018-07-17T23:18:08.409Z,4.10
2018-07-17T23:20:42.845Z,5.57
2018-07-17T23:23:17.327Z,4.40
2018-07-17T23:25:51.737Z,5.87
2018-07-17T23:28:26.366Z,6.30
2018-07-17T23:31:00.972Z,5.37
2018-07-17T23:33:35.356Z,6.30
2018-07-17T23:36:09.828Z,6.87
2018-07-17T23:38:44.489Z,7.07
2018-07-17T23:41:18.831Z,5.00
2018-07-17T23:43:53.244Z,6.70
2018-07-17T23:46:27.794Z,8.47
2018-07-17T23:49:02.292Z,6.07
2018-07-17T23:51:36.948Z,12.83
2018-07-17T23:54:11.348Z,4.03
2018-07-17T23:56:45.847Z,5.33
2018-07-17T23:59:20.451Z,8.07
